Time;durP1;ratioP1;P1;durP2;ratioP2;P2;SDS_P1;SDS_P2;PMS_P1;PMS_P2;Temp;Humidity;BMP_temperature;BMP_pressure;BME280_temperature;BME280_humidity;BME280_pressure;Samples;Min_cycle;Max_cycle;Signal;HPM_P1;HPM_P2
2021/03/24 00:00:52;;;;;;;15.65;11.43;;;;;;;;;;4998136;28;20395;-86
2021/03/24 00:03:18;;;;;;;17.60;13.52;;;;;;;;;;5008316;28;20422;-86
2021/03/24 00:05:45;;;;;;;19.80;12.45;;;;;;;;;;5012198;28;20405;-86
2021/03/24 00:08:12;;;;;;;15.60;11.80;;;;;;;;;;5008721;28;20431;-86
2021/03/24 00:10:38;;;;;;;16.48;11.80;;;;;;;;;;5009763;28;20412;-87
2021/03/24 00:13:04;;;;;;;18.27;12.95;;;;;;;;;;5016023;28;20465;-87
2021/03/24 00:15:30;;;;;;;14.95;12.07;;;;;;;;;;5008496;28;20496;-87
2021/03/24 00:17:56;;;;;;;15.82;12.43;;;;;;;;;;4992213;28;20410;-87
2021/03/24 00:20:23;;;;;;;17.23;12.95;;;;;;;;;;5025872;28;20501;-86
2021/03/24 00:22:49;;;;;;;18.10;12.40;;;;;;;;;;5012475;28;20487;-87
2021/03/24 00:25:15;;;;;;;17.23;12.82;;;;;;;;;;5009894;28;20824;-86
2021/03/24 00:27:48;;;;;;;17.80;12.68;;;;;;;;;;5013171;28;20430;-87
2021/03/24 00:30:14;;;;;;;17.75;12.57;;;;;;;;;;5008858;28;20507;-87
2021/03/24 00:32:40;;;;;;;18.85;13.05;;;;;;;;;;5011325;28;20389;-87
2021/03/24 00:35:09;;;;;;;19.33;13.48;;;;;;;;;;4993567;28;20516;-87
2021/03/24 00:37:35;;;;;;;17.67;13.15;;;;;;;;;;5000605;28;20439;-87
2021/03/24 00:40:01;;;;;;;16.85;12.75;;;;;;;;;;5012186;28;20450;-87
2021/03/24 00:42:27;;;;;;;17.55;12.02;;;;;;;;;;5010937;28;20412;-87
2021/03/24 00:44:53;;;;;;;18.20;12.80;;;;;;;;;;5011205;28;20761;-87
2021/03/24 00:47:19;;;;;;;17.52;11.80;;;;;;;;;;4991479;28;20401;-87
2021/03/24 00:49:45;;;;;;;14.77;11.43;;;;;;;;;;5021122;28;20487;-86
2021/03/24 00:52:11;;;;;;;15.45;12.02;;;;;;;;;;4993533;28;20409;-86
2021/03/24 00:54:37;;;;;;;14.40;11.55;;;;;;;;;;5011095;28;20794;-87
2021/03/24 00:57:03;;;;;;;16.13;11.88;;;;;;;;;;4998175;28;21007;-87
2021/03/24 00:59:28;;;;;;;14.05;11.32;;;;;;;;;;4993344;28;20408;-86
2021/03/24 01:01:54;;;;;;;14.35;10.65;;;;;;;;;;5009547;28;20907;-86
2021/03/24 01:04:20;;;;;;;13.48;10.48;;;;;;;;;;4996953;28;20421;-86
2021/03/24 01:06:46;;;;;;;15.50;10.68;;;;;;;;;;5013233;28;20408;-86
2021/03/24 01:09:13;;;;;;;13.00;10.65;;;;;;;;;;5007871;28;20753;-86
2021/03/24 01:11:39;;;;;;;13.50;10.07;;;;;;;;;;5009019;28;20405;-86
2021/03/24 01:14:05;;;;;;;14.70;10.02;;;;;;;;;;5009689;28;20488;-86
2021/03/24 01:16:31;;;;;;;16.75;10.57;;;;;;;;;;5008135;28;20404;-86
2021/03/24 01:18:57;;;;;;;12.77;9.20;;;;;;;;;;5009240;28;20421;-87
2021/03/24 01:21:23;;;;;;;14.80;9.88;;;;;;;;;;5008877;28;20413;-87
2021/03/24 01:23:49;;;;;;;13.55;10.40;;;;;;;;;;4994120;28;20527;-86
2021/03/24 01:26:16;;;;;;;14.10;9.77;;;;;;;;;;4983841;28;20434;-87
2021/03/24 01:28:41;;;;;;;11.85;9.88;;;;;;;;;;4991382;28;20398;-87
2021/03/24 01:31:08;;;;;;;12.97;10.53;;;;;;;;;;5011218;28;20904;-87
2021/03/24 01:33:34;;;;;;;11.60;9.32;;;;;;;;;;5000886;28;20399;-87
2021/03/24 01:35:59;;;;;;;14.27;9.27;;;;;;;;;;5000168;28;20393;-87
2021/03/24 01:38:25;;;;;;;13.63;9.68;;;;;;;;;;4990880;28;20944;-87
2021/03/24 01:40:53;;;;;;;16.10;10.07;;;;;;;;;;5012877;28;20776;-87
2021/03/24 01:43:22;;;;;;;12.90;9.80;;;;;;;;;;4992902;28;20414;-87
2021/03/24 01:46:07;;;;;;;17.88;9.65;;;;;;;;;;5017402;28;20420;-87
2021/03/24 01:48:33;;;;;;;13.70;9.95;;;;;;;;;;4990605;28;20421;-87
2021/03/24 01:50:59;;;;;;;13.17;10.30;;;;;;;;;;5013595;28;20403;-86
2021/03/24 01:53:25;;;;;;;15.30;10.25;;;;;;;;;;5000628;28;20426;-86
2021/03/24 01:55:51;;;;;;;13.45;8.85;;;;;;;;;;4995329;28;20412;-87
2021/03/24 01:58:17;;;;;;;12.30;9.77;;;;;;;;;;5010476;28;20392;-86
2021/03/24 02:00:45;;;;;;;14.05;9.40;;;;;;;;;;4991484;28;20409;-86
2021/03/24 02:03:11;;;;;;;12.32;9.73;;;;;;;;;;4990390;28;20452;-87
2021/03/24 02:05:37;;;;;;;12.13;9.65;;;;;;;;;;5025219;28;20460;-87
2021/03/24 02:08:10;;;;;;;12.55;9.50;;;;;;;;;;5005971;28;20415;-87
2021/03/24 02:10:44;;;;;;;11.35;9.77;;;;;;;;;;4998709;28;20416;-87
2021/03/24 02:13:19;;;;;;;11.73;9.35;;;;;;;;;;4993689;28;20420;-87
2021/03/24 02:15:49;;;;;;;12.48;9.65;;;;;;;;;;5016292;28;20415;-87
2021/03/24 02:18:15;;;;;;;12.40;9.10;;;;;;;;;;5010283;28;20964;-87
2021/03/24 02:20:47;;;;;;;11.38;9.32;;;;;;;;;;4999661;28;20413;-87
2021/03/24 02:23:28;;;;;;;11.55;9.32;;;;;;;;;;5013889;28;20423;-87
2021/03/24 02:25:54;;;;;;;12.25;9.02;;;;;;;;;;5023358;28;20454;-86
2021/03/24 02:28:20;;;;;;;11.40;8.63;;;;;;;;;;5018110;28;20395;-87
2021/03/24 02:30:46;;;;;;;13.33;9.40;;;;;;;;;;5025404;28;20415;-87
2021/03/24 02:33:15;;;;;;;12.32;9.00;;;;;;;;;;4999288;28;20407;-87
2021/03/24 02:35:42;;;;;;;15.50;9.73;;;;;;;;;;5005106;28;20413;-87
2021/03/24 02:38:08;;;;;;;12.77;9.10;;;;;;;;;;4993139;28;20476;-86
2021/03/24 02:40:34;;;;;;;11.17;9.30;;;;;;;;;;4995672;28;20991;-87
2021/03/24 02:43:00;;;;;;;10.00;8.60;;;;;;;;;;4997427;28;20404;-87
2021/03/24 02:45:27;;;;;;;12.40;9.10;;;;;;;;;;5015720;28;20418;-86
2021/03/24 02:47:53;;;;;;;12.70;9.13;;;;;;;;;;4999659;28;20407;-87
2021/03/24 02:50:20;;;;;;;11.40;9.05;;;;;;;;;;5011183;28;20501;-86
2021/03/24 02:52:46;;;;;;;11.55;9.40;;;;;;;;;;5012100;28;20464;-87
2021/03/24 02:55:12;;;;;;;17.10;9.07;;;;;;;;;;4986512;28;20932;-87
2021/03/24 02:57:38;;;;;;;10.52;9.10;;;;;;;;;;5013173;28;20435;-87
2021/03/24 03:00:06;;;;;;;9.50;8.03;;;;;;;;;;4995103;28;20389;-87
2021/03/24 03:02:33;;;;;;;12.23;8.68;;;;;;;;;;5005835;28;20395;-87
2021/03/24 03:05:04;;;;;;;12.68;8.48;;;;;;;;;;4994184;28;20409;-87
2021/03/24 03:07:31;;;;;;;13.02;8.75;;;;;;;;;;5011135;28;20408;-87
2021/03/24 03:10:01;;;;;;;11.05;8.52;;;;;;;;;;5012359;28;20406;-87
2021/03/24 03:12:38;;;;;;;10.60;8.98;;;;;;;;;;5034079;28;20404;-87
2021/03/24 03:15:12;;;;;;;10.13;8.23;;;;;;;;;;5009521;28;20430;-87
2021/03/24 03:17:44;;;;;;;13.53;9.10;;;;;;;;;;5012059;28;20713;-87
2021/03/24 03:20:15;;;;;;;11.63;8.73;;;;;;;;;;5013198;28;20983;-86
2021/03/24 03:22:43;;;;;;;12.70;8.80;;;;;;;;;;5017180;28;20497;-87
2021/03/24 03:25:11;;;;;;;10.32;8.65;;;;;;;;;;5028037;28;20422;-86
2021/03/24 03:27:37;;;;;;;12.05;8.23;;;;;;;;;;5047146;28;20884;-86
2021/03/24 03:30:07;;;;;;;10.50;8.70;;;;;;;;;;5031050;28;20478;-86
2021/03/24 03:32:33;;;;;;;17.65;9.70;;;;;;;;;;5031152;28;20414;-86
2021/03/24 03:35:03;;;;;;;10.73;8.45;;;;;;;;;;5015000;28;20399;-87
2021/03/24 03:37:29;;;;;;;14.07;9.20;;;;;;;;;;5013920;28;21016;-87
2021/03/24 03:39:55;;;;;;;12.38;9.00;;;;;;;;;;5032131;28;20403;-87
2021/03/24 03:42:22;;;;;;;11.52;8.70;;;;;;;;;;5015046;28;20405;-87
2021/03/24 03:44:48;;;;;;;14.27;9.50;;;;;;;;;;5043788;28;20432;-87
2021/03/24 03:47:14;;;;;;;18.65;11.13;;;;;;;;;;5012917;28;20411;-87
2021/03/24 03:49:40;;;;;;;21.85;12.50;;;;;;;;;;5038437;28;20397;-87
2021/03/24 03:52:18;;;;;;;39.17;19.42;;;;;;;;;;5010671;28;20413;-87
2021/03/24 03:54:51;;;;;;;20.00;13.48;;;;;;;;;;5029275;28;20530;-86
2021/03/24 03:57:19;;;;;;;16.00;11.45;;;;;;;;;;5027820;28;20865;-86
2021/03/24 03:59:56;;;;;;;13.82;10.15;;;;;;;;;;5024435;28;20411;-86
2021/03/24 04:02:25;;;;;;;17.35;10.77;;;;;;;;;;5031263;28;20415;-87
2021/03/24 04:04:52;;;;;;;14.98;10.82;;;;;;;;;;5047758;28;20451;-87
2021/03/24 04:07:22;;;;;;;14.55;10.70;;;;;;;;;;5011703;28;20413;-87
2021/03/24 04:09:48;;;;;;;14.17;9.60;;;;;;;;;;5012612;28;20429;-87
2021/03/24 04:12:14;;;;;;;14.10;9.32;;;;;;;;;;5009370;28;20496;-87
2021/03/24 04:14:41;;;;;;;10.32;8.52;;;;;;;;;;5010630;28;20407;-87
2021/03/24 04:17:08;;;;;;;12.35;9.27;;;;;;;;;;5024239;28;20833;-87
2021/03/24 04:19:35;;;;;;;12.32;9.25;;;;;;;;;;5021678;28;20393;-87
2021/03/24 04:22:01;;;;;;;12.50;9.13;;;;;;;;;;4994411;28;20499;-87
2021/03/24 04:24:28;;;;;;;14.25;9.43;;;;;;;;;;4992171;28;20423;-87
2021/03/24 04:26:56;;;;;;;13.30;10.07;;;;;;;;;;4993393;28;20413;-87
2021/03/24 04:29:23;;;;;;;16.33;10.15;;;;;;;;;;5011581;28;20562;-87
2021/03/24 04:31:54;;;;;;;13.13;9.18;;;;;;;;;;5001508;28;20411;-87
2021/03/24 04:34:20;;;;;;;11.25;8.88;;;;;;;;;;5031265;28;20402;-87
2021/03/24 04:36:49;;;;;;;13.63;9.70;;;;;;;;;;4993586;28;20735;-87
2021/03/24 04:39:21;;;;;;;14.00;9.57;;;;;;;;;;5004566;28;20451;-87
2021/03/24 04:41:47;;;;;;;12.48;9.43;;;;;;;;;;4988664;28;20968;-87
2021/03/24 04:44:24;;;;;;;12.73;8.57;;;;;;;;;;4991343;28;20447;-87
2021/03/24 04:46:50;;;;;;;14.23;9.00;;;;;;;;;;5005437;28;20408;-87
2021/03/24 04:49:17;;;;;;;12.45;8.95;;;;;;;;;;5013308;28;20424;-87
2021/03/24 04:51:43;;;;;;;13.75;8.63;;;;;;;;;;4994950;28;20434;-87
2021/03/24 04:54:12;;;;;;;13.65;8.90;;;;;;;;;;4988127;28;20404;-87
2021/03/24 04:56:38;;;;;;;11.03;8.73;;;;;;;;;;5009292;28;20397;-87
2021/03/24 04:59:04;;;;;;;10.35;8.68;;;;;;;;;;5012796;28;20880;-86
2021/03/24 05:01:40;;;;;;;12.63;8.60;;;;;;;;;;4993694;28;20667;-87
2021/03/24 05:04:07;;;;;;;13.52;9.13;;;;;;;;;;4998424;28;20780;-87
2021/03/24 05:06:37;;;;;;;11.02;8.52;;;;;;;;;;5015345;28;21359;-87
2021/03/24 05:09:15;;;;;;;12.80;8.90;;;;;;;;;;5008487;28;20813;-87
2021/03/24 05:11:52;;;;;;;12.73;9.05;;;;;;;;;;4990942;28;20397;-87
2021/03/24 05:14:27;;;;;;;14.65;9.30;;;;;;;;;;4995041;28;20405;-87
2021/03/24 05:17:13;;;;;;;10.32;7.88;;;;;;;;;;5023473;28;20443;-87
2021/03/24 05:19:39;;;;;;;13.68;8.55;;;;;;;;;;5021721;28;20489;-87
2021/03/24 05:22:10;;;;;;;12.88;8.70;;;;;;;;;;5002543;28;20407;-86
2021/03/24 05:24:37;;;;;;;11.82;8.10;;;;;;;;;;5006884;28;20802;-89
2021/03/24 05:27:12;;;;;;;11.45;8.32;;;;;;;;;;5005216;28;20412;-88
2021/03/24 05:29:38;;;;;;;12.15;8.23;;;;;;;;;;5007571;28;20404;-88
2021/03/24 05:32:04;;;;;;;12.63;9.15;;;;;;;;;;5007424;28;20880;-88
2021/03/24 05:34:32;;;;;;;15.57;9.57;;;;;;;;;;4993751;28;20409;-88
2021/03/24 05:36:58;;;;;;;15.48;10.35;;;;;;;;;;5002938;28;20424;-88
2021/03/24 05:39:24;;;;;;;14.52;10.10;;;;;;;;;;4994335;28;20408;-88
2021/03/24 05:42:02;;;;;;;20.27;13.07;;;;;;;;;;5006520;28;20412;-88
2021/03/24 05:44:47;;;;;;;17.80;12.98;;;;;;;;;;5007997;28;20427;-87
2021/03/24 05:47:31;;;;;;;19.13;11.93;;;;;;;;;;5005566;28;20415;-88
2021/03/24 05:50:16;;;;;;;16.42;10.98;;;;;;;;;;5010124;28;20409;-88
2021/03/24 05:52:57;;;;;;;18.33;11.40;;;;;;;;;;5005288;28;20419;-88
2021/03/24 05:55:26;;;;;;;15.05;11.38;;;;;;;;;;5005838;28;20475;-88
2021/03/24 05:58:11;;;;;;;17.85;10.95;;;;;;;;;;5007179;28;20442;-88
2021/03/24 06:00:45;;;;;;;16.67;10.95;;;;;;;;;;5026130;28;20435;-88
2021/03/24 06:03:31;;;;;;;22.27;11.25;;;;;;;;;;5007699;28;20412;-88
2021/03/24 06:06:02;;;;;;;16.73;10.13;;;;;;;;;;4994320;28;20414;-88
2021/03/24 06:08:34;;;;;;;15.47;9.47;;;;;;;;;;4995091;28;20404;-88
2021/03/24 06:11:03;;;;;;;14.93;9.98;;;;;;;;;;5010611;28;20413;-87
2021/03/24 06:13:29;;;;;;;12.98;9.32;;;;;;;;;;5020489;28;20990;-88
2021/03/24 06:16:08;;;;;;;12.68;8.10;;;;;;;;;;5025303;28;20534;-88
2021/03/24 06:18:46;;;;;;;11.45;7.88;;;;;;;;;;5036815;28;20503;-88
2021/03/24 06:21:19;;;;;;;11.23;7.65;;;;;;;;;;5027706;28;20447;-87
2021/03/24 06:24:04;;;;;;;13.55;9.65;;;;;;;;;;5018031;28;20501;-86
2021/03/24 06:26:50;;;;;;;14.75;9.57;;;;;;;;;;5025423;28;20407;-85
2021/03/24 06:29:20;;;;;;;11.82;8.77;;;;;;;;;;5025949;28;20401;-88
2021/03/24 06:32:05;;;;;;;15.38;9.93;;;;;;;;;;5021059;28;20423;-88
2021/03/24 06:34:50;;;;;;;14.30;9.87;;;;;;;;;;5029013;28;20599;-89
2021/03/24 06:37:25;;;;;;;12.18;9.75;;;;;;;;;;5030618;28;20411;-91
2021/03/24 06:39:58;;;;;;;14.98;10.88;;;;;;;;;;5029514;28;20403;-86
2021/03/24 06:42:42;;;;;;;16.87;10.40;;;;;;;;;;5023401;28;20938;-85
2021/03/24 06:45:11;;;;;;;19.20;11.55;;;;;;;;;;5035225;28;20769;-85
2021/03/24 06:47:48;;;;;;;15.00;10.52;;;;;;;;;;5037486;28;20401;-85
2021/03/24 06:50:33;;;;;;;15.13;11.20;;;;;;;;;;5018853;28;20440;-87
2021/03/24 06:53:18;;;;;;;15.30;10.40;;;;;;;;;;5023686;28;20433;-87
2021/03/24 06:56:04;;;;;;;12.83;9.57;;;;;;;;;;5019434;28;20403;-85
2021/03/24 06:58:30;;;;;;;14.90;10.57;;;;;;;;;;5029238;28;20411;-88
2021/03/24 07:01:01;;;;;;;14.70;10.10;;;;;;;;;;5035290;28;20399;-87
2021/03/24 07:03:27;;;;;;;13.52;9.60;;;;;;;;;;5030824;28;20461;-89
2021/03/24 07:06:12;;;;;;;12.60;9.10;;;;;;;;;;5030196;28;20906;-88
2021/03/24 07:08:59;;;;;;;11.80;9.43;;;;;;;;;;5029807;28;20407;-88
2021/03/24 07:11:43;;;;;;;13.70;9.43;;;;;;;;;;5019113;28;20438;-87
2021/03/24 07:14:15;;;;;;;13.63;9.40;;;;;;;;;;5050500;28;20467;-87
2021/03/24 07:17:00;;;;;;;16.17;10.10;;;;;;;;;;5052549;28;20405;-87
2021/03/24 07:19:45;;;;;;;12.20;8.70;;;;;;;;;;5057454;28;20398;-89
2021/03/24 07:22:19;;;;;;;11.57;9.18;;;;;;;;;;5040973;28;20426;-91
2021/03/24 07:25:05;;;;;;;11.68;9.02;;;;;;;;;;5028159;28;20827;-87
2021/03/24 07:27:43;;;;;;;11.20;8.90;;;;;;;;;;5023939;28;20895;-87
2021/03/24 07:30:18;;;;;;;10.40;8.30;;;;;;;;;;5050459;28;20406;-87
2021/03/24 07:32:58;;;;;;;10.63;8.83;;;;;;;;;;5035268;28;20884;-87
2021/03/24 07:35:39;;;;;;;12.18;8.65;;;;;;;;;;5019377;28;20524;-85
2021/03/24 07:38:11;;;;;;;14.60;8.93;;;;;;;;;;5018227;28;20760;-85
2021/03/24 07:40:43;;;;;;;11.77;9.13;;;;;;;;;;5020900;28;20513;-85
2021/03/24 07:43:28;;;;;;;12.05;9.77;;;;;;;;;;5041800;28;20416;-85
2021/03/24 07:45:59;;;;;;;14.05;9.88;;;;;;;;;;5028013;28;20475;-86
2021/03/24 07:48:44;;;;;;;13.48;10.48;;;;;;;;;;5029628;28;20415;-86
2021/03/24 07:51:10;;;;;;;14.40;9.77;;;;;;;;;;5047516;28;20746;-86
2021/03/24 07:53:44;;;;;;;13.90;9.65;;;;;;;;;;5031312;28;20488;-85
2021/03/24 07:56:16;;;;;;;11.55;9.43;;;;;;;;;;5025440;28;20510;-86
2021/03/24 07:59:01;;;;;;;16.40;10.53;;;;;;;;;;5028770;28;20407;-86
2021/03/24 08:01:27;;;;;;;15.87;10.53;;;;;;;;;;5048278;28;20458;-86
2021/03/24 08:04:12;;;;;;;14.00;10.75;;;;;;;;;;5032904;28;20421;-85
2021/03/24 08:06:49;;;;;;;13.83;11.00;;;;;;;;;;5039187;28;20426;-86
2021/03/24 08:09:34;;;;;;;14.70;11.35;;;;;;;;;;5038809;28;20447;-86
2021/03/24 08:12:00;;;;;;;14.35;10.68;;;;;;;;;;5016119;28;20823;-86
2021/03/24 08:14:28;;;;;;;11.45;10.10;;;;;;;;;;5053708;28;20413;-86
2021/03/24 08:16:57;;;;;;;12.02;10.50;;;;;;;;;;5031346;28;20410;-86
2021/03/24 08:19:26;;;;;;;11.18;9.85;;;;;;;;;;5028741;28;20456;-86
2021/03/24 08:22:01;;;;;;;10.82;9.75;;;;;;;;;;5030856;28;20401;-86
2021/03/24 08:24:38;;;;;;;11.40;9.88;;;;;;;;;;5006271;28;20423;-86
2021/03/24 08:27:09;;;;;;;10.77;9.68;;;;;;;;;;5047224;28;20926;-87
2021/03/24 08:30:01;;;;;;;11.10;10.00;;;;;;;;;;5026721;28;20415;-86
2021/03/24 08:32:46;;;;;;;10.25;9.10;;;;;;;;;;5000628;28;20447;-87
2021/03/24 08:35:15;;;;;;;9.98;8.98;;;;;;;;;;5032534;28;20741;-87
2021/03/24 08:38:01;;;;;;;9.80;8.90;;;;;;;;;;5030579;28;20463;-87
2021/03/24 08:40:39;;;;;;;10.50;9.43;;;;;;;;;;5047347;28;20912;-87
2021/03/24 08:43:20;;;;;;;10.48;9.00;;;;;;;;;;5033820;28;20398;-87
2021/03/24 08:46:05;;;;;;;10.68;9.68;;;;;;;;;;5049562;28;20559;-88
2021/03/24 08:48:34;;;;;;;10.67;9.07;;;;;;;;;;5050145;28;20415;-87
2021/03/24 08:51:07;;;;;;;9.63;8.73;;;;;;;;;;5050642;28;20428;-87
2021/03/24 08:53:40;;;;;;;9.85;9.00;;;;;;;;;;5034388;28;20409;-87
2021/03/24 08:56:19;;;;;;;12.10;8.70;;;;;;;;;;5018339;28;20410;-88
2021/03/24 08:58:51;;;;;;;10.52;9.48;;;;;;;;;;5024495;28;20892;-88
2021/03/24 09:01:36;;;;;;;10.05;9.05;;;;;;;;;;5013194;28;20415;-87
2021/03/24 09:04:08;;;;;;;10.48;9.25;;;;;;;;;;5030559;28;20434;-87
2021/03/24 09:06:46;;;;;;;10.00;8.95;;;;;;;;;;5043824;28;20745;-88
2021/03/24 09:09:12;;;;;;;10.13;9.07;;;;;;;;;;5047953;28;20409;-88
2021/03/24 09:11:49;;;;;;;9.88;8.98;;;;;;;;;;5027600;28;20393;-88
2021/03/24 09:14:18;;;;;;;10.20;9.25;;;;;;;;;;5033971;28;20427;-88
2021/03/24 09:17:03;;;;;;;9.93;8.95;;;;;;;;;;5050620;28;20393;-87
2021/03/24 09:19:44;;;;;;;9.87;8.97;;;;;;;;;;5029663;28;20405;-88
2021/03/24 09:22:29;;;;;;;9.73;8.93;;;;;;;;;;5048071;28;20409;-87
2021/03/24 09:25:21;;;;;;;10.80;9.90;;;;;;;;;;5031386;28;20413;-88
2021/03/24 09:27:56;;;;;;;10.77;9.20;;;;;;;;;;4984430;28;20410;-88
2021/03/24 09:30:22;;;;;;;10.27;9.10;;;;;;;;;;5016005;28;20403;-88
2021/03/24 09:32:48;;;;;;;9.63;8.82;;;;;;;;;;5048027;28;20397;-88
2021/03/24 09:35:26;;;;;;;10.27;9.32;;;;;;;;;;5031305;28;20401;-88
2021/03/24 09:37:57;;;;;;;10.60;9.50;;;;;;;;;;5032128;28;20382;-88
2021/03/24 09:40:42;;;;;;;10.63;9.57;;;;;;;;;;5030453;28;20407;-88
2021/03/24 09:43:27;;;;;;;10.18;9.05;;;;;;;;;;5014125;28;20401;-88
2021/03/24 09:46:07;;;;;;;9.93;8.93;;;;;;;;;;5021063;28;20417;-88
2021/03/24 09:48:51;;;;;;;10.73;9.73;;;;;;;;;;5005632;28;20486;-87
2021/03/24 09:51:21;;;;;;;10.68;8.85;;;;;;;;;;5047985;28;20416;-87
2021/03/24 09:53:47;;;;;;;10.00;9.10;;;;;;;;;;5016941;28;20796;-88
2021/03/24 09:56:13;;;;;;;10.65;9.15;;;;;;;;;;5032079;28;20401;-89
2021/03/24 09:58:58;;;;;;;9.27;8.45;;;;;;;;;;5017009;28;20405;-89
2021/03/24 10:01:34;;;;;;;10.18;9.18;;;;;;;;;;5045744;28;20404;-89
2021/03/24 10:04:05;;;;;;;9.60;8.70;;;;;;;;;;5017315;28;20765;-89
2021/03/24 10:06:40;;;;;;;9.75;8.80;;;;;;;;;;5014044;28;20405;-89
2021/03/24 10:09:16;;;;;;;9.88;8.98;;;;;;;;;;5018982;28;20430;-89
2021/03/24 10:11:57;;;;;;;9.20;8.43;;;;;;;;;;5028217;28;20401;-89
2021/03/24 10:14:31;;;;;;;9.15;8.40;;;;;;;;;;5044260;28;20477;-89
2021/03/24 10:17:03;;;;;;;9.25;8.45;;;;;;;;;;5028552;28;20455;-89
2021/03/24 10:19:33;;;;;;;9.00;8.30;;;;;;;;;;5032993;28;20393;-89
2021/03/24 10:22:03;;;;;;;10.10;9.15;;;;;;;;;;5032386;28;20411;-90
2021/03/24 10:24:30;;;;;;;9.45;8.45;;;;;;;;;;5014943;28;20423;-89
2021/03/24 10:27:08;;;;;;;8.67;8.07;;;;;;;;;;5031337;28;20413;-89
2021/03/24 10:29:44;;;;;;;9.27;8.48;;;;;;;;;;5011482;28;20750;-89
2021/03/24 10:32:20;;;;;;;9.48;8.68;;;;;;;;;;5026989;28;20403;-89
2021/03/24 10:34:47;;;;;;;8.30;7.57;;;;;;;;;;5031826;28;20814;-89
2021/03/24 10:37:32;;;;;;;9.30;8.50;;;;;;;;;;5023230;28;20785;-90
2021/03/24 10:40:01;;;;;;;9.02;8.40;;;;;;;;;;5050733;28;20455;-90
2021/03/24 10:42:27;;;;;;;8.90;8.10;;;;;;;;;;5033399;28;20449;-89
2021/03/24 10:44:56;;;;;;;9.13;8.20;;;;;;;;;;5031751;28;20415;-89
2021/03/24 10:47:26;;;;;;;8.43;7.80;;;;;;;;;;5016124;28;20410;-90
2021/03/24 10:50:03;;;;;;;9.07;8.27;;;;;;;;;;5032022;28;20422;-89
2021/03/24 10:52:35;;;;;;;8.93;8.25;;;;;;;;;;5036204;28;20399;-90
2021/03/24 10:55:17;;;;;;;;;;;;;;;;;;;;;
2021/03/24 10:57:47;;;;;;;8.63;7.93;;;;;;;;;;5036041;28;20908;-90
2021/03/24 11:00:20;;;;;;;9.63;8.85;;;;;;;;;;5018076;28;20443;-89
2021/03/24 11:02:55;;;;;;;9.90;9.10;;;;;;;;;;5036090;28;20455;-89
2021/03/24 11:05:40;;;;;;;9.23;8.48;;;;;;;;;;5024090;28;20404;-89
2021/03/24 11:08:12;;;;;;;8.00;7.30;;;;;;;;;;5049328;28;20455;-90
2021/03/24 11:10:47;;;;;;;7.57;6.97;;;;;;;;;;5016603;28;20794;-90
2021/03/24 11:13:20;;;;;;;8.40;7.70;;;;;;;;;;4999603;28;20826;-89
2021/03/24 11:15:46;;;;;;;8.35;7.75;;;;;;;;;;5022692;28;20898;-90
2021/03/24 11:18:12;;;;;;;8.73;8.03;;;;;;;;;;5052722;28;20393;-90
2021/03/24 11:20:57;;;;;;;9.10;8.20;;;;;;;;;;5017701;28;20397;-91
2021/03/24 11:23:27;;;;;;;9.35;8.35;;;;;;;;;;5027634;28;20424;-89
2021/03/24 11:25:57;;;;;;;8.70;8.00;;;;;;;;;;5035603;28;20886;-90
2021/03/24 11:28:25;;;;;;;9.40;8.50;;;;;;;;;;5018905;28;20445;-90
2021/03/24 11:30:52;;;;;;;8.98;8.15;;;;;;;;;;5019590;28;20496;-90
2021/03/24 11:33:18;;;;;;;8.30;7.50;;;;;;;;;;5018530;28;20409;-90
2021/03/24 11:35:58;;;;;;;9.63;8.87;;;;;;;;;;5051607;28;20398;-90
2021/03/24 11:38:27;;;;;;;9.63;8.80;;;;;;;;;;5017016;28;20411;-90
2021/03/24 11:40:53;;;;;;;8.27;7.35;;;;;;;;;;5035263;28;20493;-90
2021/03/24 11:43:20;;;;;;;10.00;9.10;;;;;;;;;;5031988;28;20502;-91
2021/03/24 11:45:52;;;;;;;8.88;7.97;;;;;;;;;;5030025;28;20410;-89
2021/03/24 11:48:21;;;;;;;7.97;7.30;;;;;;;;;;5019781;28;20393;-93
2021/03/24 11:51:02;;;;;;;9.27;8.27;;;;;;;;;;5029964;28;20407;-96
2021/03/24 11:53:44;;;;;;;9.32;8.43;;;;;;;;;;5027706;28;20403;-91
2021/03/24 11:56:32;;;;;;;9.02;8.23;;;;;;;;;;5035553;28;20475;-91
2021/03/24 11:59:15;;;;;;;8.93;8.20;;;;;;;;;;5015083;28;20407;-91
2021/03/24 12:01:42;;;;;;;8.07;7.28;;;;;;;;;;5013932;28;20931;-92
2021/03/24 12:04:08;;;;;;;9.27;8.48;;;;;;;;;;5014627;28;20441;-91
2021/03/24 12:06:57;;;;;;;10.13;9.10;;;;;;;;;;5027930;28;20492;-89
2021/03/24 12:09:24;;;;;;;9.17;8.27;;;;;;;;;;5010339;28;20401;-90
2021/03/24 12:11:52;;;;;;;9.45;8.55;;;;;;;;;;5009385;28;20411;-90
2021/03/24 12:14:19;;;;;;;9.70;8.77;;;;;;;;;;5012949;28;20417;-89
2021/03/24 12:16:58;;;;;;;10.27;9.38;;;;;;;;;;5015721;28;20412;-90
2021/03/24 12:19:27;;;;;;;9.75;8.75;;;;;;;;;;5019131;28;21025;-90
2021/03/24 12:21:54;;;;;;;9.52;8.60;;;;;;;;;;5031710;28;20409;-90
2021/03/24 12:24:34;;;;;;;9.10;8.20;;;;;;;;;;5012682;28;20468;-91
2021/03/24 12:27:11;;;;;;;8.13;7.43;;;;;;;;;;5016918;28;20504;-91
2021/03/24 12:29:37;;;;;;;9.63;8.73;;;;;;;;;;5015063;28;21009;-92
2021/03/24 12:32:05;;;;;;;7.80;7.03;;;;;;;;;;5017229;28;20398;-90
2021/03/24 12:34:32;;;;;;;7.47;6.88;;;;;;;;;;5025414;28;20409;-92
2021/03/24 12:36:58;;;;;;;9.18;8.27;;;;;;;;;;5012456;28;20420;-93
2021/03/24 12:39:35;;;;;;;7.97;7.25;;;;;;;;;;5013443;28;20488;-92
2021/03/24 12:42:08;;;;;;;8.95;8.07;;;;;;;;;;5011766;28;20427;-90
2021/03/24 12:44:38;;;;;;;8.88;8.02;;;;;;;;;;5030908;28;20421;-89
2021/03/24 12:47:05;;;;;;;9.23;8.30;;;;;;;;;;5013282;28;20402;-91
2021/03/24 12:49:35;;;;;;;9.07;8.18;;;;;;;;;;5016337;28;20410;-91
2021/03/24 12:52:27;;;;;;;9.40;8.30;;;;;;;;;;5014895;28;20506;-91
2021/03/24 12:54:59;;;;;;;11.93;9.02;;;;;;;;;;5040659;28;20455;-92
2021/03/24 12:57:29;;;;;;;10.50;8.52;;;;;;;;;;5004881;28;20911;-91
2021/03/24 13:00:04;;;;;;;7.45;6.75;;;;;;;;;;5013375;28;20405;-91
2021/03/24 13:02:33;;;;;;;7.88;7.15;;;;;;;;;;5030704;28;20398;-90
2021/03/24 13:04:59;;;;;;;8.23;7.47;;;;;;;;;;5027892;28;20433;-91
2021/03/24 13:07:46;;;;;;;8.48;7.68;;;;;;;;;;5021860;28;20413;-92
2021/03/24 13:10:32;;;;;;;7.57;6.97;;;;;;;;;;5029716;28;20428;-91
2021/03/24 13:13:11;;;;;;;8.65;7.75;;;;;;;;;;5029035;28;20800;-92
2021/03/24 13:15:44;;;;;;;7.47;6.68;;;;;;;;;;5026346;28;20488;-90
2021/03/24 13:18:21;;;;;;;7.30;6.45;;;;;;;;;;5041527;28;20405;-91
2021/03/24 13:21:06;;;;;;;7.10;5.75;;;;;;;;;;5010626;28;20448;-92
2021/03/24 13:23:46;;;;;;;8.60;7.63;;;;;;;;;;5026339;28;20437;-91
2021/03/24 13:26:29;;;;;;;9.20;6.95;;;;;;;;;;5029389;28;20405;-91
2021/03/24 13:29:14;;;;;;;7.60;5.47;;;;;;;;;;5024366;28;20402;-92
2021/03/24 13:31:48;;;;;;;7.80;6.57;;;;;;;;;;5049476;28;20417;-91
2021/03/24 13:34:26;;;;;;;6.50;5.90;;;;;;;;;;5009712;28;20911;-91
2021/03/24 13:36:56;;;;;;;7.85;6.78;;;;;;;;;;5033002;28;20785;-91
2021/03/24 13:39:28;;;;;;;7.13;6.43;;;;;;;;;;5013302;28;20440;-90
2021/03/24 13:41:55;;;;;;;8.27;6.82;;;;;;;;;;5022560;28;20816;-91
2021/03/24 13:44:26;;;;;;;8.18;5.97;;;;;;;;;;5013545;28;20413;-90
2021/03/24 13:46:56;;;;;;;7.43;5.93;;;;;;;;;;5046129;28;20393;-91
2021/03/24 13:49:24;;;;;;;8.45;7.05;;;;;;;;;;5023540;28;20445;-92
2021/03/24 13:51:52;;;;;;;11.15;7.88;;;;;;;;;;5024271;28;20398;-91
2021/03/24 13:54:21;;;;;;;7.90;6.38;;;;;;;;;;5020241;28;20413;-91
2021/03/24 13:56:46;;;;;;;7.90;6.60;;;;;;;;;;5021012;28;20422;-90
2021/03/24 13:59:29;;;;;;;7.37;6.50;;;;;;;;;;5024594;28;20401;-90
2021/03/24 14:02:04;;;;;;;8.03;5.93;;;;;;;;;;5008318;28;20410;-90
2021/03/24 14:04:52;;;;;;;8.60;6.32;;;;;;;;;;5026834;28;20425;-89
2021/03/24 14:07:36;;;;;;;7.10;5.70;;;;;;;;;;5029569;28;20911;-88
2021/03/24 14:10:21;;;;;;;7.68;5.50;;;;;;;;;;5020076;28;20411;-89
2021/03/24 14:12:50;;;;;;;9.32;6.88;;;;;;;;;;5051273;28;20479;-90
2021/03/24 14:15:25;;;;;;;8.70;6.20;;;;;;;;;;5029934;28;20405;-89
2021/03/24 14:18:06;;;;;;;8.25;6.45;;;;;;;;;;5031899;28;20408;-89
2021/03/24 14:20:35;;;;;;;8.23;6.60;;;;;;;;;;5033739;28;20496;-92
2021/03/24 14:23:16;;;;;;;6.68;5.95;;;;;;;;;;5021078;28;20920;-89
2021/03/24 14:25:42;;;;;;;8.93;6.40;;;;;;;;;;5020309;28;20403;-87
2021/03/24 14:28:20;;;;;;;6.40;5.28;;;;;;;;;;5026876;28;20983;-89
2021/03/24 14:31:06;;;;;;;6.85;5.75;;;;;;;;;;5021687;28;20505;-86
2021/03/24 14:33:37;;;;;;;5.45;4.93;;;;;;;;;;5048417;28;20425;-88
2021/03/24 14:36:07;;;;;;;5.63;4.43;;;;;;;;;;5019296;28;20500;-86
2021/03/24 14:38:51;;;;;;;5.40;4.55;;;;;;;;;;5011744;28;20409;-86
2021/03/24 14:41:36;;;;;;;7.38;5.10;;;;;;;;;;5032768;28;20437;-86
2021/03/24 14:44:18;;;;;;;5.90;4.38;;;;;;;;;;5034287;28;20402;-87
2021/03/24 14:47:10;;;;;;;6.07;5.07;;;;;;;;;;5052713;28;20549;-87
2021/03/24 14:49:42;;;;;;;5.20;4.38;;;;;;;;;;5031293;28;20904;-87
2021/03/24 14:52:09;;;;;;;5.32;4.47;;;;;;;;;;5036514;28;20389;-87
2021/03/24 14:54:35;;;;;;;4.97;4.43;;;;;;;;;;5034541;28;20471;-87
2021/03/24 14:57:08;;;;;;;5.25;4.70;;;;;;;;;;5032066;28;20403;-87
2021/03/24 14:59:38;;;;;;;5.77;5.10;;;;;;;;;;5011767;28;20406;-87
2021/03/24 15:02:20;;;;;;;6.88;4.88;;;;;;;;;;5010267;28;20404;-86
2021/03/24 15:04:49;;;;;;;5.03;4.53;;;;;;;;;;5016326;28;20453;-87